CES6302 ZJHK-ZHCC
Flight info
| Callsign | CES6302 |
|---|---|
| Flight time | 2h 17m |
| Altitude | FL351 |
| Route | AGTEL W71 LH R339 BHY LBN R343 GOSMA W82 UPMAT W56 IGMIG |
| Aircraft | B77W/H-VGDW/C |
Departure
| Time | 2026-05-07 12:28 |
|---|---|
| Airport | Haikou Meilan International Airport (ZJHK) |
Arrival
| Time | 2026-05-07 14:45 |
|---|---|
| Airport | Zhengzhou Xinzheng International Airport (ZHCC) |
| Time | Latitude | Longitude | Altitude | Speed | Heading |
|---|---|---|---|---|---|
| 2026-05-07 12:10 | 19.94907 | 110.45327 | 74 ft | 0 kts | 90° |
| 2026-05-07 12:18 | 19.94907 | 110.45320 | 74 ft | 2 kts | 89° |
| 2026-05-07 12:18 | 19.94906 | 110.45304 | 74 ft | 2 kts | 89° |
| 2026-05-07 12:18 | 19.94906 | 110.45288 | 74 ft | 2 kts | 90° |
| 2026-05-07 12:18 | 19.94907 | 110.45272 | 74 ft | 2 kts | 105° |
| 2026-05-07 12:19 | 19.94914 | 110.45258 | 74 ft | 2 kts | 129° |
| 2026-05-07 12:19 | 19.94924 | 110.45247 | 74 ft | 2 kts | 148° |
| 2026-05-07 12:19 | 19.94938 | 110.45241 | 74 ft | 2 kts | 168° |
| 2026-05-07 12:19 | 19.94947 | 110.45240 | 74 ft | 1 kts | 180° |
| 2026-05-07 12:20 | 19.94950 | 110.45240 | 74 ft | 0 kts | 180° |
| 2026-05-07 12:24 | 19.94945 | 110.45240 | 75 ft | 3 kts | 180° |
| 2026-05-07 12:24 | 19.94915 | 110.45232 | 75 ft | 5 kts | 222° |
| 2026-05-07 12:24 | 19.94904 | 110.45177 | 75 ft | 9 kts | 269° |
| 2026-05-07 12:25 | 19.94908 | 110.45108 | 75 ft | 10 kts | 291° |
| 2026-05-07 12:25 | 19.94965 | 110.45077 | 75 ft | 9 kts | 357° |
| 2026-05-07 12:25 | 19.94980 | 110.45073 | 75 ft | 4 kts | 333° |
| 2026-05-07 12:25 | 19.95017 | 110.45031 | 75 ft | 12 kts | 309° |
| 2026-05-07 12:26 | 19.95084 | 110.44946 | 75 ft | 17 kts | 310° |
| 2026-05-07 12:26 | 19.95164 | 110.44847 | 75 ft | 18 kts | 317° |
| 2026-05-07 12:26 | 19.95276 | 110.44818 | 75 ft | 16 kts | 7° |
| 2026-05-07 12:26 | 19.95363 | 110.44879 | 75 ft | 15 kts | 63° |
| 2026-05-07 12:27 | 19.95373 | 110.44998 | 75 ft | 27 kts | 89° |
| 2026-05-07 12:27 | 19.95373 | 110.45466 | 75 ft | 99 kts | 90° |
| 2026-05-07 12:27 | 19.95377 | 110.46438 | 76 ft | 163 kts | 90° |
| 2026-05-07 12:27 | 19.95379 | 110.47741 | 464 ft | 184 kts | 91° |
| 2026-05-07 12:28 | 19.95430 | 110.49063 | 1359 ft | 183 kts | 79° |
| 2026-05-07 12:28 | 19.96068 | 110.50255 | 1820 ft | 202 kts | 42° |
| 2026-05-07 12:28 | 19.97410 | 110.50860 | 2174 ft | 225 kts | 5° |
| 2026-05-07 12:28 | 19.99000 | 110.50548 | 2619 ft | 245 kts | 338° |
| 2026-05-07 12:29 | 20.00610 | 110.49798 | 3211 ft | 259 kts | 336° |
| 2026-05-07 12:29 | 20.02284 | 110.48989 | 3845 ft | 271 kts | 335° |
| 2026-05-07 12:29 | 20.04007 | 110.48154 | 4679 ft | 275 kts | 335° |
| 2026-05-07 12:29 | 20.05739 | 110.47315 | 5571 ft | 277 kts | 335° |
| 2026-05-07 12:30 | 20.07487 | 110.46468 | 6406 ft | 280 kts | 335° |
| 2026-05-07 12:30 | 20.09256 | 110.45610 | 7222 ft | 283 kts | 335° |
| 2026-05-07 12:30 | 20.11042 | 110.44744 | 8039 ft | 285 kts | 335° |
| 2026-05-07 12:30 | 20.12862 | 110.43861 | 8818 ft | 289 kts | 335° |
| 2026-05-07 12:31 | 20.14686 | 110.42976 | 9569 ft | 292 kts | 335° |
| 2026-05-07 12:31 | 20.16534 | 110.42080 | 10287 ft | 296 kts | 335° |
| 2026-05-07 12:31 | 20.18451 | 110.41149 | 10758 ft | 311 kts | 335° |
| 2026-05-07 12:31 | 20.20465 | 110.40171 | 11198 ft | 327 kts | 335° |
| 2026-05-07 12:32 | 20.22573 | 110.39148 | 11657 ft | 341 kts | 335° |
| 2026-05-07 12:32 | 20.24771 | 110.38082 | 12109 ft | 355 kts | 336° |
| 2026-05-07 12:32 | 20.27153 | 110.37166 | 12525 ft | 369 kts | 341° |
| 2026-05-07 12:32 | 20.29641 | 110.36314 | 12929 ft | 383 kts | 341° |
| 2026-05-07 12:33 | 20.34861 | 110.34523 | 13859 ft | 403 kts | 339° |
| 2026-05-07 12:33 | 20.37419 | 110.33292 | 14493 ft | 407 kts | 329° |
| 2026-05-07 12:33 | 20.39793 | 110.31652 | 15143 ft | 410 kts | 325° |
| 2026-05-07 12:34 | 20.42143 | 110.29923 | 15762 ft | 414 kts | 324° |
| 2026-05-07 12:34 | 20.44526 | 110.28166 | 16412 ft | 416 kts | 324° |
| 2026-05-07 12:34 | 20.46908 | 110.26408 | 17049 ft | 419 kts | 324° |
| 2026-05-07 12:34 | 20.49304 | 110.24639 | 17626 ft | 422 kts | 324° |
| 2026-05-07 12:35 | 20.51730 | 110.22848 | 18169 ft | 427 kts | 324° |
| 2026-05-07 12:35 | 20.54172 | 110.21044 | 18709 ft | 431 kts | 324° |
| 2026-05-07 12:35 | 20.56634 | 110.19224 | 19280 ft | 433 kts | 324° |
| 2026-05-07 12:35 | 20.59115 | 110.17389 | 19810 ft | 437 kts | 324° |
| 2026-05-07 12:36 | 20.61639 | 110.15523 | 20308 ft | 441 kts | 324° |
| 2026-05-07 12:36 | 20.64159 | 110.13658 | 20813 ft | 444 kts | 325° |
| 2026-05-07 12:36 | 20.66698 | 110.11779 | 21327 ft | 446 kts | 325° |
| 2026-05-07 12:36 | 20.69253 | 110.09887 | 21850 ft | 449 kts | 325° |
| 2026-05-07 12:37 | 20.71814 | 110.07989 | 22340 ft | 451 kts | 325° |
| 2026-05-07 12:37 | 20.74395 | 110.06076 | 22816 ft | 454 kts | 325° |
| 2026-05-07 12:37 | 20.77001 | 110.04144 | 23292 ft | 456 kts | 325° |
| 2026-05-07 12:37 | 20.79560 | 110.02246 | 23732 ft | 459 kts | 325° |
| 2026-05-07 12:38 | 20.82187 | 110.00297 | 24177 ft | 462 kts | 325° |
| 2026-05-07 12:38 | 20.84829 | 109.98335 | 24640 ft | 465 kts | 325° |
| 2026-05-07 12:38 | 20.87487 | 109.96361 | 25088 ft | 467 kts | 325° |
| 2026-05-07 12:38 | 20.90157 | 109.94377 | 25534 ft | 470 kts | 324° |
| 2026-05-07 12:39 | 20.92846 | 109.92378 | 25952 ft | 474 kts | 324° |
| 2026-05-07 12:39 | 20.95552 | 109.90366 | 26388 ft | 476 kts | 324° |
| 2026-05-07 12:39 | 20.98296 | 109.88324 | 26855 ft | 479 kts | 324° |
| 2026-05-07 12:39 | 21.01030 | 109.86289 | 27291 ft | 482 kts | 324° |
| 2026-05-07 12:40 | 21.03785 | 109.84237 | 27702 ft | 485 kts | 324° |
| 2026-05-07 12:40 | 21.06556 | 109.82173 | 28133 ft | 488 kts | 324° |
| 2026-05-07 12:40 | 21.09341 | 109.80096 | 28565 ft | 490 kts | 324° |
| 2026-05-07 12:40 | 21.12140 | 109.78009 | 29017 ft | 492 kts | 324° |
| 2026-05-07 12:41 | 21.14939 | 109.75920 | 29559 ft | 492 kts | 324° |
| 2026-05-07 12:41 | 21.17752 | 109.73821 | 30244 ft | 489 kts | 324° |
| 2026-05-07 12:41 | 21.20516 | 109.71757 | 31012 ft | 484 kts | 324° |
| 2026-05-07 12:41 | 21.23253 | 109.69712 | 31729 ft | 479 kts | 324° |
| 2026-05-07 12:42 | 21.25969 | 109.67682 | 32330 ft | 477 kts | 324° |
| 2026-05-07 12:42 | 21.28680 | 109.65655 | 32897 ft | 476 kts | 324° |
| 2026-05-07 12:42 | 21.31381 | 109.63634 | 33473 ft | 474 kts | 324° |
| 2026-05-07 12:42 | 21.34074 | 109.61618 | 34035 ft | 473 kts | 324° |
| 2026-05-07 12:43 | 21.36782 | 109.59590 | 34572 ft | 472 kts | 324° |
| 2026-05-07 12:43 | 21.39462 | 109.57582 | 34951 ft | 473 kts | 324° |
| 2026-05-07 12:43 | 21.44929 | 109.53483 | 34960 ft | 487 kts | 324° |
| 2026-05-07 12:44 | 21.50509 | 109.49295 | 34957 ft | 492 kts | 324° |
| 2026-05-07 12:44 | 21.56237 | 109.45240 | 34956 ft | 493 kts | 331° |
| 2026-05-07 12:45 | 21.62668 | 109.42732 | 34955 ft | 496 kts | 347° |
| 2026-05-07 12:45 | 21.69524 | 109.41724 | 34962 ft | 498 kts | 352° |
| 2026-05-07 12:46 | 21.76405 | 109.40854 | 34965 ft | 499 kts | 352° |
| 2026-05-07 12:46 | 21.83306 | 109.39973 | 34965 ft | 498 kts | 352° |
| 2026-05-07 12:47 | 21.90196 | 109.39087 | 34966 ft | 498 kts | 351° |
| 2026-05-07 12:47 | 21.97066 | 109.38200 | 34970 ft | 499 kts | 351° |
| 2026-05-07 12:48 | 22.03965 | 109.37308 | 34978 ft | 498 kts | 351° |
| 2026-05-07 12:48 | 22.10861 | 109.36414 | 34982 ft | 499 kts | 351° |
| 2026-05-07 12:49 | 22.17764 | 109.35517 | 34986 ft | 501 kts | 351° |
| 2026-05-07 12:49 | 22.24678 | 109.34619 | 34991 ft | 501 kts | 351° |
| 2026-05-07 12:50 | 22.31626 | 109.33714 | 34996 ft | 501 kts | 351° |
| 2026-05-07 12:50 | 22.38552 | 109.32812 | 35002 ft | 502 kts | 351° |
| 2026-05-07 12:51 | 22.45481 | 109.31908 | 35007 ft | 502 kts | 351° |
| 2026-05-07 12:51 | 22.52417 | 109.31003 | 35011 ft | 502 kts | 351° |
| 2026-05-07 12:52 | 22.59380 | 109.30093 | 35010 ft | 504 kts | 351° |
| 2026-05-07 12:52 | 22.66349 | 109.29181 | 35004 ft | 505 kts | 351° |
| 2026-05-07 12:53 | 22.73321 | 109.28268 | 34999 ft | 505 kts | 351° |
| 2026-05-07 12:53 | 22.80314 | 109.27351 | 35002 ft | 505 kts | 351° |
| 2026-05-07 12:54 | 22.87292 | 109.26436 | 35012 ft | 506 kts | 351° |
| 2026-05-07 12:54 | 22.94274 | 109.25518 | 35026 ft | 507 kts | 351° |
| 2026-05-07 12:55 | 23.01284 | 109.24597 | 35032 ft | 508 kts | 351° |
| 2026-05-07 12:55 | 23.08317 | 109.23671 | 35031 ft | 508 kts | 350° |
| 2026-05-07 12:56 | 23.15346 | 109.22745 | 35025 ft | 508 kts | 350° |
| 2026-05-07 12:56 | 23.22363 | 109.21819 | 35014 ft | 508 kts | 350° |
| 2026-05-07 12:57 | 23.29437 | 109.20884 | 35011 ft | 514 kts | 350° |
| 2026-05-07 12:57 | 23.36573 | 109.19941 | 35005 ft | 514 kts | 350° |
| 2026-05-07 12:58 | 23.43665 | 109.19003 | 35001 ft | 513 kts | 350° |
| 2026-05-07 12:58 | 23.50751 | 109.18064 | 35003 ft | 514 kts | 350° |
| 2026-05-07 12:59 | 23.57861 | 109.17121 | 35008 ft | 514 kts | 349° |
| 2026-05-07 12:59 | 23.64952 | 109.16180 | 35008 ft | 513 kts | 349° |
| 2026-05-07 13:00 | 23.72124 | 109.15767 | 35010 ft | 519 kts | 1° |
| 2026-05-07 13:00 | 23.79212 | 109.17529 | 35007 ft | 529 kts | 18° |
| 2026-05-07 13:01 | 23.85677 | 109.21435 | 35022 ft | 536 kts | 30° |
| 2026-05-07 13:01 | 23.91853 | 109.25968 | 35023 ft | 536 kts | 31° |
| 2026-05-07 13:02 | 23.98076 | 109.30542 | 35024 ft | 536 kts | 31° |
| 2026-05-07 13:02 | 24.04261 | 109.35086 | 35027 ft | 537 kts | 30° |
| 2026-05-07 13:03 | 24.10443 | 109.39630 | 35033 ft | 536 kts | 30° |
| 2026-05-07 13:03 | 24.16677 | 109.44214 | 35041 ft | 537 kts | 30° |
| 2026-05-07 13:04 | 24.22896 | 109.48792 | 35048 ft | 537 kts | 30° |
| 2026-05-07 13:04 | 24.29115 | 109.53374 | 35056 ft | 537 kts | 30° |
| 2026-05-07 13:05 | 24.35322 | 109.57951 | 35053 ft | 537 kts | 30° |
| 2026-05-07 13:05 | 24.41507 | 109.62523 | 35051 ft | 537 kts | 30° |
| 2026-05-07 13:06 | 24.47697 | 109.67115 | 35035 ft | 536 kts | 31° |
| 2026-05-07 13:06 | 24.53905 | 109.71726 | 35035 ft | 537 kts | 31° |
| 2026-05-07 13:07 | 24.60085 | 109.76321 | 35044 ft | 537 kts | 31° |
| 2026-05-07 13:07 | 24.66281 | 109.80933 | 35055 ft | 537 kts | 31° |
| 2026-05-07 13:08 | 24.72500 | 109.85549 | 35070 ft | 537 kts | 31° |
| 2026-05-07 13:08 | 24.78691 | 109.90131 | 35071 ft | 538 kts | 31° |
| 2026-05-07 13:09 | 24.84892 | 109.94728 | 35070 ft | 539 kts | 31° |
| 2026-05-07 13:09 | 24.91096 | 109.99334 | 35072 ft | 539 kts | 31° |
| 2026-05-07 13:10 | 24.97326 | 110.03965 | 35076 ft | 539 kts | 30° |
| 2026-05-07 13:10 | 25.03527 | 110.08580 | 35071 ft | 538 kts | 30° |
| 2026-05-07 13:11 | 25.09716 | 110.13193 | 35080 ft | 538 kts | 30° |
| 2026-05-07 13:11 | 25.15955 | 110.17848 | 35086 ft | 538 kts | 30° |
| 2026-05-07 13:12 | 25.22157 | 110.22478 | 35088 ft | 539 kts | 30° |
| 2026-05-07 13:12 | 25.28381 | 110.27099 | 35092 ft | 538 kts | 30° |
| 2026-05-07 13:13 | 25.34587 | 110.31711 | 35113 ft | 539 kts | 30° |
| 2026-05-07 13:13 | 25.40808 | 110.36341 | 35130 ft | 539 kts | 30° |
| 2026-05-07 13:14 | 25.47018 | 110.40940 | 35154 ft | 538 kts | 30° |
| 2026-05-07 13:14 | 25.53272 | 110.45541 | 35178 ft | 538 kts | 30° |
| 2026-05-07 13:15 | 25.59533 | 110.50065 | 35182 ft | 538 kts | 28° |
| 2026-05-07 13:15 | 25.65899 | 110.54453 | 35175 ft | 537 kts | 27° |
| 2026-05-07 13:16 | 25.72234 | 110.58831 | 35169 ft | 536 kts | 27° |
| 2026-05-07 13:16 | 25.78576 | 110.63185 | 35176 ft | 537 kts | 27° |
| 2026-05-07 13:17 | 25.84949 | 110.67481 | 35187 ft | 536 kts | 27° |
| 2026-05-07 13:17 | 25.91366 | 110.71815 | 35207 ft | 536 kts | 27° |
| 2026-05-07 13:18 | 25.97722 | 110.76119 | 35252 ft | 537 kts | 27° |
| 2026-05-07 13:18 | 26.04085 | 110.80435 | 35242 ft | 537 kts | 27° |
| 2026-05-07 13:19 | 26.10465 | 110.84761 | 35216 ft | 537 kts | 27° |
| 2026-05-07 13:19 | 26.16841 | 110.89080 | 35197 ft | 536 kts | 27° |
| 2026-05-07 13:20 | 26.23217 | 110.93405 | 35194 ft | 536 kts | 27° |
| 2026-05-07 13:20 | 26.29610 | 110.97747 | 35196 ft | 537 kts | 26° |
| 2026-05-07 13:21 | 26.35970 | 111.02074 | 35199 ft | 537 kts | 26° |
| 2026-05-07 13:21 | 26.42333 | 111.06409 | 35204 ft | 537 kts | 26° |
| 2026-05-07 13:22 | 26.48690 | 111.10745 | 35211 ft | 535 kts | 26° |
| 2026-05-07 13:22 | 26.55037 | 111.15080 | 35212 ft | 536 kts | 26° |
| 2026-05-07 13:23 | 26.61382 | 111.19495 | 35212 ft | 537 kts | 28° |
| 2026-05-07 13:23 | 26.67645 | 111.24100 | 35212 ft | 537 kts | 28° |
| 2026-05-07 13:24 | 26.73884 | 111.28688 | 35220 ft | 538 kts | 28° |
| 2026-05-07 13:24 | 26.80140 | 111.33288 | 35215 ft | 537 kts | 28° |
| 2026-05-07 13:25 | 26.86379 | 111.37876 | 35216 ft | 538 kts | 28° |
| 2026-05-07 13:25 | 26.92631 | 111.42474 | 35210 ft | 536 kts | 27° |
| 2026-05-07 13:26 | 26.99051 | 111.46723 | 35211 ft | 534 kts | 25° |
| 2026-05-07 13:26 | 27.05503 | 111.50929 | 35215 ft | 534 kts | 25° |
| 2026-05-07 13:27 | 27.11835 | 111.55078 | 35217 ft | 536 kts | 25° |
| 2026-05-07 13:27 | 27.18251 | 111.59301 | 35217 ft | 535 kts | 25° |
| 2026-05-07 13:28 | 27.24624 | 111.63683 | 35221 ft | 536 kts | 26° |
| 2026-05-07 13:28 | 27.31014 | 111.68108 | 35213 ft | 538 kts | 26° |
| 2026-05-07 13:29 | 27.37373 | 111.72514 | 35218 ft | 537 kts | 26° |
| 2026-05-07 13:29 | 27.43744 | 111.76931 | 35229 ft | 540 kts | 26° |
| 2026-05-07 13:30 | 27.50149 | 111.81377 | 35230 ft | 539 kts | 26° |
| 2026-05-07 13:30 | 27.56555 | 111.85830 | 35225 ft | 540 kts | 26° |
| 2026-05-07 13:31 | 27.62937 | 111.90272 | 35219 ft | 540 kts | 26° |
| 2026-05-07 13:31 | 27.69356 | 111.94746 | 35212 ft | 539 kts | 26° |
| 2026-05-07 13:32 | 27.75729 | 111.99193 | 35204 ft | 540 kts | 26° |
| 2026-05-07 13:32 | 27.82120 | 112.03655 | 35210 ft | 542 kts | 26° |
| 2026-05-07 13:33 | 27.88525 | 112.08132 | 35211 ft | 541 kts | 26° |
| 2026-05-07 13:33 | 27.94908 | 112.12599 | 35212 ft | 542 kts | 26° |
| 2026-05-07 13:34 | 28.04565 | 112.19281 | 35210 ft | 542 kts | 25° |
| 2026-05-07 13:35 | 28.10918 | 112.23949 | 35212 ft | 545 kts | 30° |
| 2026-05-07 13:35 | 28.17052 | 112.28998 | 35209 ft | 544 kts | 30° |
| 2026-05-07 13:36 | 28.23158 | 112.33915 | 35208 ft | 544 kts | 29° |
| 2026-05-07 13:36 | 28.29343 | 112.38843 | 35200 ft | 545 kts | 28° |
| 2026-05-07 13:37 | 28.35558 | 112.43795 | 35194 ft | 544 kts | 29° |
| 2026-05-07 13:37 | 28.41742 | 112.48723 | 35201 ft | 545 kts | 28° |
| 2026-05-07 13:38 | 28.47962 | 112.53685 | 35199 ft | 544 kts | 28° |
| 2026-05-07 13:38 | 28.54141 | 112.58619 | 35194 ft | 545 kts | 28° |
| 2026-05-07 13:39 | 28.60362 | 112.63594 | 35196 ft | 546 kts | 28° |
| 2026-05-07 13:39 | 28.66557 | 112.68555 | 35184 ft | 546 kts | 29° |
| 2026-05-07 13:40 | 28.72768 | 112.73535 | 35184 ft | 546 kts | 29° |
| 2026-05-07 13:40 | 28.78981 | 112.78525 | 35185 ft | 547 kts | 29° |
| 2026-05-07 13:41 | 28.85211 | 112.83535 | 35182 ft | 547 kts | 28° |
| 2026-05-07 13:41 | 28.91420 | 112.88537 | 35181 ft | 547 kts | 28° |
| 2026-05-07 13:42 | 28.97618 | 112.93537 | 35187 ft | 546 kts | 28° |
| 2026-05-07 13:42 | 29.03823 | 112.98549 | 35193 ft | 547 kts | 28° |
| 2026-05-07 13:43 | 29.10037 | 113.03576 | 35190 ft | 548 kts | 28° |
| 2026-05-07 13:43 | 29.16258 | 113.08617 | 35200 ft | 548 kts | 28° |
| 2026-05-07 13:44 | 29.22489 | 113.13674 | 35198 ft | 548 kts | 28° |
| 2026-05-07 13:44 | 29.28708 | 113.18728 | 35201 ft | 547 kts | 28° |
| 2026-05-07 13:45 | 29.34915 | 113.23734 | 35197 ft | 544 kts | 25° |
| 2026-05-07 13:45 | 29.41501 | 113.27841 | 35210 ft | 540 kts | 20° |
| 2026-05-07 13:46 | 29.48171 | 113.31801 | 35209 ft | 537 kts | 20° |
| 2026-05-07 13:46 | 29.54786 | 113.35740 | 35216 ft | 538 kts | 20° |
| 2026-05-07 13:47 | 29.61418 | 113.39698 | 35218 ft | 540 kts | 20° |
| 2026-05-07 13:47 | 29.68077 | 113.43682 | 35217 ft | 538 kts | 20° |
| 2026-05-07 13:48 | 29.74723 | 113.47665 | 35225 ft | 539 kts | 20° |
| 2026-05-07 13:48 | 29.81377 | 113.51658 | 35228 ft | 542 kts | 20° |
| 2026-05-07 13:49 | 29.88016 | 113.55652 | 35230 ft | 539 kts | 20° |
| 2026-05-07 13:49 | 29.94694 | 113.59672 | 35226 ft | 541 kts | 20° |
| 2026-05-07 13:50 | 30.01482 | 113.63187 | 35226 ft | 536 kts | 15° |
| 2026-05-07 13:50 | 30.08347 | 113.66543 | 35211 ft | 535 kts | 16° |
| 2026-05-07 13:51 | 30.15216 | 113.69933 | 35217 ft | 536 kts | 16° |
| 2026-05-07 13:51 | 30.22054 | 113.73330 | 35214 ft | 536 kts | 16° |
| 2026-05-07 13:52 | 30.28888 | 113.76741 | 35216 ft | 534 kts | 16° |
| 2026-05-07 13:52 | 30.35729 | 113.80164 | 35219 ft | 536 kts | 16° |
| 2026-05-07 13:53 | 30.42596 | 113.83611 | 35221 ft | 534 kts | 16° |
| 2026-05-07 13:53 | 30.49499 | 113.87080 | 35216 ft | 535 kts | 16° |
| 2026-05-07 13:54 | 30.56413 | 113.90563 | 35218 ft | 535 kts | 16° |
| 2026-05-07 13:54 | 30.63337 | 113.94056 | 35220 ft | 536 kts | 16° |
| 2026-05-07 13:55 | 30.70266 | 113.97411 | 35226 ft | 534 kts | 14° |
| 2026-05-07 13:55 | 30.77035 | 114.01118 | 35223 ft | 538 kts | 19° |
| 2026-05-07 13:56 | 30.83764 | 114.04837 | 35222 ft | 536 kts | 17° |
| 2026-05-07 13:56 | 30.90494 | 114.08495 | 35227 ft | 536 kts | 17° |
| 2026-05-07 13:57 | 30.97262 | 114.12173 | 35229 ft | 536 kts | 17° |
| 2026-05-07 13:57 | 31.03999 | 114.15838 | 35231 ft | 537 kts | 17° |
| 2026-05-07 13:58 | 31.10769 | 114.19521 | 35239 ft | 534 kts | 17° |
| 2026-05-07 13:58 | 31.17518 | 114.23195 | 35235 ft | 537 kts | 17° |
| 2026-05-07 13:59 | 31.24248 | 114.26867 | 35251 ft | 534 kts | 17° |
| 2026-05-07 13:59 | 31.30968 | 114.30531 | 35249 ft | 534 kts | 16° |
| 2026-05-07 13:59 | 31.34421 | 114.32029 | 35250 ft | 522 kts | 7° |
| 2026-05-07 14:00 | 31.37924 | 114.32914 | 35248 ft | 512 kts | 359° |
| 2026-05-07 14:00 | 31.44943 | 114.33379 | 35256 ft | 505 kts | 353° |
| 2026-05-07 14:01 | 31.51933 | 114.33613 | 35261 ft | 503 kts | 353° |
| 2026-05-07 14:01 | 31.58947 | 114.33833 | 35263 ft | 503 kts | 353° |
| 2026-05-07 14:02 | 31.65940 | 114.34047 | 35270 ft | 504 kts | 353° |
| 2026-05-07 14:02 | 31.72911 | 114.34259 | 35266 ft | 500 kts | 353° |
| 2026-05-07 14:03 | 31.79883 | 114.34472 | 35278 ft | 503 kts | 353° |
| 2026-05-07 14:03 | 31.86885 | 114.34687 | 35276 ft | 501 kts | 353° |
| 2026-05-07 14:04 | 31.93851 | 114.34897 | 35274 ft | 500 kts | 353° |
| 2026-05-07 14:04 | 32.00799 | 114.35107 | 35276 ft | 501 kts | 353° |
| 2026-05-07 14:05 | 32.07785 | 114.35318 | 35280 ft | 503 kts | 353° |
| 2026-05-07 14:05 | 32.14754 | 114.35529 | 35285 ft | 502 kts | 353° |
| 2026-05-07 14:06 | 32.21719 | 114.35741 | 35290 ft | 502 kts | 353° |
| 2026-05-07 14:06 | 32.28684 | 114.36036 | 35296 ft | 504 kts | 356° |
| 2026-05-07 14:07 | 32.35705 | 114.36709 | 35301 ft | 506 kts | 356° |
| 2026-05-07 14:07 | 32.42741 | 114.37381 | 35296 ft | 506 kts | 355° |
| 2026-05-07 14:08 | 32.49801 | 114.38042 | 35300 ft | 506 kts | 355° |
| 2026-05-07 14:08 | 32.56903 | 114.38700 | 35303 ft | 507 kts | 355° |
| 2026-05-07 14:09 | 32.63982 | 114.39355 | 35302 ft | 507 kts | 355° |
| 2026-05-07 14:09 | 32.71064 | 114.40014 | 35301 ft | 506 kts | 355° |
| 2026-05-07 14:10 | 32.78116 | 114.40672 | 35304 ft | 507 kts | 355° |
| 2026-05-07 14:10 | 32.81630 | 114.41000 | 35130 ft | 508 kts | 355° |
| 2026-05-07 14:10 | 32.85180 | 114.41331 | 34748 ft | 510 kts | 355° |
| 2026-05-07 14:10 | 32.88702 | 114.41661 | 34364 ft | 507 kts | 355° |
| 2026-05-07 14:11 | 32.92201 | 114.41990 | 33985 ft | 504 kts | 355° |
| 2026-05-07 14:11 | 32.95691 | 114.42318 | 33604 ft | 500 kts | 355° |
| 2026-05-07 14:11 | 32.99143 | 114.42642 | 33222 ft | 497 kts | 355° |
| 2026-05-07 14:11 | 33.02579 | 114.42964 | 32842 ft | 494 kts | 355° |
| 2026-05-07 14:12 | 33.05984 | 114.43284 | 32468 ft | 491 kts | 355° |
| 2026-05-07 14:12 | 33.09381 | 114.43603 | 32092 ft | 489 kts | 355° |
| 2026-05-07 14:12 | 33.12773 | 114.43791 | 31713 ft | 480 kts | 350° |
| 2026-05-07 14:12 | 33.16053 | 114.43471 | 31339 ft | 469 kts | 343° |
| 2026-05-07 14:13 | 33.19205 | 114.42652 | 30955 ft | 459 kts | 336° |
| 2026-05-07 14:13 | 33.22171 | 114.41381 | 30585 ft | 450 kts | 329° |
| 2026-05-07 14:13 | 33.24923 | 114.39704 | 30211 ft | 442 kts | 322° |
| 2026-05-07 14:13 | 33.27436 | 114.37664 | 29830 ft | 435 kts | 316° |
| 2026-05-07 14:14 | 33.29687 | 114.35304 | 29450 ft | 430 kts | 310° |
| 2026-05-07 14:14 | 33.31663 | 114.32668 | 29081 ft | 427 kts | 306° |
| 2026-05-07 14:14 | 33.33643 | 114.30048 | 28720 ft | 427 kts | 310° |
| 2026-05-07 14:14 | 33.35858 | 114.27683 | 28348 ft | 425 kts | 315° |
| 2026-05-07 14:15 | 33.38218 | 114.25594 | 27978 ft | 423 kts | 320° |
| 2026-05-07 14:15 | 33.40702 | 114.23715 | 27611 ft | 424 kts | 323° |
| 2026-05-07 14:15 | 33.43281 | 114.22012 | 27241 ft | 426 kts | 326° |
| 2026-05-07 14:15 | 33.45934 | 114.20456 | 26877 ft | 426 kts | 329° |
| 2026-05-07 14:16 | 33.48632 | 114.19028 | 26507 ft | 425 kts | 330° |
| 2026-05-07 14:16 | 33.51337 | 114.17654 | 26138 ft | 423 kts | 329° |
| 2026-05-07 14:16 | 33.54057 | 114.16258 | 25770 ft | 424 kts | 331° |
| 2026-05-07 14:16 | 33.56802 | 114.15003 | 25412 ft | 423 kts | 333° |
| 2026-05-07 14:17 | 33.59570 | 114.13860 | 25040 ft | 422 kts | 335° |
| 2026-05-07 14:17 | 33.62354 | 114.12797 | 24672 ft | 420 kts | 336° |
| 2026-05-07 14:17 | 33.65142 | 114.11790 | 24310 ft | 419 kts | 337° |
| 2026-05-07 14:17 | 33.67929 | 114.10825 | 23940 ft | 418 kts | 338° |
| 2026-05-07 14:18 | 33.70717 | 114.09887 | 23593 ft | 417 kts | 338° |
| 2026-05-07 14:18 | 33.73521 | 114.08963 | 23243 ft | 415 kts | 338° |
| 2026-05-07 14:18 | 33.76286 | 114.08065 | 22877 ft | 411 kts | 338° |
| 2026-05-07 14:18 | 33.79032 | 114.07181 | 22555 ft | 408 kts | 339° |
| 2026-05-07 14:19 | 33.81756 | 114.06311 | 22228 ft | 405 kts | 340° |
| 2026-05-07 14:19 | 33.84463 | 114.05450 | 21885 ft | 402 kts | 340° |
| 2026-05-07 14:19 | 33.87164 | 114.04593 | 21548 ft | 401 kts | 340° |
| 2026-05-07 14:19 | 33.89853 | 114.03745 | 21209 ft | 398 kts | 340° |
| 2026-05-07 14:20 | 33.92538 | 114.02901 | 20866 ft | 395 kts | 341° |
| 2026-05-07 14:20 | 33.95186 | 114.02069 | 20520 ft | 393 kts | 341° |
| 2026-05-07 14:20 | 33.97826 | 114.01240 | 20176 ft | 393 kts | 342° |
| 2026-05-07 14:20 | 34.00454 | 114.00415 | 19830 ft | 390 kts | 342° |
| 2026-05-07 14:21 | 34.03067 | 113.99594 | 19480 ft | 387 kts | 342° |
| 2026-05-07 14:21 | 34.05644 | 113.98719 | 19125 ft | 383 kts | 339° |
| 2026-05-07 14:21 | 34.08079 | 113.97486 | 18770 ft | 380 kts | 332° |
| 2026-05-07 14:21 | 34.10354 | 113.95860 | 18404 ft | 377 kts | 324° |
| 2026-05-07 14:22 | 34.12398 | 113.93899 | 18054 ft | 376 kts | 317° |
| 2026-05-07 14:22 | 34.14194 | 113.91635 | 17699 ft | 375 kts | 311° |
| 2026-05-07 14:22 | 34.15720 | 113.89103 | 17336 ft | 375 kts | 303° |
| 2026-05-07 14:22 | 34.16949 | 113.86346 | 16974 ft | 375 kts | 296° |
| 2026-05-07 14:23 | 34.17954 | 113.83459 | 16617 ft | 374 kts | 295° |
| 2026-05-07 14:23 | 34.18933 | 113.80572 | 16254 ft | 373 kts | 295° |
| 2026-05-07 14:23 | 34.19917 | 113.77673 | 15899 ft | 372 kts | 295° |
| 2026-05-07 14:23 | 34.20891 | 113.74808 | 15531 ft | 370 kts | 295° |
| 2026-05-07 14:24 | 34.21862 | 113.71952 | 15167 ft | 369 kts | 295° |
| 2026-05-07 14:24 | 34.22832 | 113.69101 | 14811 ft | 368 kts | 295° |
| 2026-05-07 14:24 | 34.23799 | 113.66258 | 14445 ft | 366 kts | 295° |
| 2026-05-07 14:24 | 34.24755 | 113.63450 | 14082 ft | 360 kts | 295° |
| 2026-05-07 14:25 | 34.25694 | 113.60692 | 13714 ft | 353 kts | 295° |
| 2026-05-07 14:25 | 34.26624 | 113.57960 | 13366 ft | 348 kts | 296° |
| 2026-05-07 14:25 | 34.27531 | 113.55294 | 13011 ft | 342 kts | 296° |
| 2026-05-07 14:25 | 34.28427 | 113.52665 | 12655 ft | 337 kts | 296° |
| 2026-05-07 14:26 | 34.29307 | 113.50079 | 12304 ft | 332 kts | 296° |
| 2026-05-07 14:26 | 34.30176 | 113.47523 | 11942 ft | 328 kts | 296° |
| 2026-05-07 14:26 | 34.31033 | 113.45003 | 11584 ft | 324 kts | 296° |
| 2026-05-07 14:26 | 34.31884 | 113.42517 | 11227 ft | 319 kts | 297° |
| 2026-05-07 14:27 | 34.33048 | 113.40293 | 10882 ft | 307 kts | 318° |
| 2026-05-07 14:27 | 34.34763 | 113.38920 | 10820 ft | 289 kts | 339° |
| 2026-05-07 14:27 | 34.36663 | 113.38454 | 10771 ft | 275 kts | 360° |
| 2026-05-07 14:27 | 34.38524 | 113.38734 | 10635 ft | 266 kts | 11° |
| 2026-05-07 14:28 | 34.40286 | 113.39290 | 10490 ft | 259 kts | 14° |
| 2026-05-07 14:28 | 34.41911 | 113.40189 | 10324 ft | 260 kts | 33° |
| 2026-05-07 14:28 | 34.43186 | 113.41771 | 10164 ft | 269 kts | 53° |
| 2026-05-07 14:28 | 34.43907 | 113.43904 | 10000 ft | 278 kts | 75° |
| 2026-05-07 14:29 | 34.43886 | 113.46256 | 9856 ft | 286 kts | 98° |
| 2026-05-07 14:29 | 34.43121 | 113.48489 | 9698 ft | 288 kts | 115° |
| 2026-05-07 14:29 | 34.42190 | 113.50572 | 9549 ft | 276 kts | 112° |
| 2026-05-07 14:29 | 34.41386 | 113.52629 | 9398 ft | 268 kts | 109° |
| 2026-05-07 14:30 | 34.40658 | 113.54687 | 9244 ft | 267 kts | 108° |
| 2026-05-07 14:30 | 34.39952 | 113.56750 | 9057 ft | 264 kts | 108° |
| 2026-05-07 14:30 | 34.39252 | 113.58809 | 8881 ft | 263 kts | 108° |
| 2026-05-07 14:30 | 34.38561 | 113.60843 | 8710 ft | 262 kts | 108° |
| 2026-05-07 14:31 | 34.37873 | 113.62871 | 8535 ft | 261 kts | 108° |
| 2026-05-07 14:31 | 34.37185 | 113.64891 | 8356 ft | 260 kts | 108° |
| 2026-05-07 14:31 | 34.36502 | 113.66895 | 8201 ft | 258 kts | 108° |
| 2026-05-07 14:31 | 34.35995 | 113.68945 | 8022 ft | 252 kts | 91° |
| 2026-05-07 14:32 | 34.36165 | 113.70996 | 7834 ft | 243 kts | 67° |
| 2026-05-07 14:32 | 34.36963 | 113.72747 | 7639 ft | 235 kts | 46° |
| 2026-05-07 14:32 | 34.38210 | 113.73961 | 7459 ft | 229 kts | 26° |
| 2026-05-07 14:32 | 34.39638 | 113.74758 | 7270 ft | 225 kts | 17° |
| 2026-05-07 14:33 | 34.41179 | 113.75014 | 7087 ft | 225 kts | 356° |
| 2026-05-07 14:33 | 34.42682 | 113.74552 | 6899 ft | 225 kts | 336° |
| 2026-05-07 14:33 | 34.43943 | 113.73433 | 6718 ft | 229 kts | 316° |
| 2026-05-07 14:33 | 34.44779 | 113.71781 | 6546 ft | 235 kts | 295° |
| 2026-05-07 14:34 | 34.45314 | 113.69891 | 6405 ft | 236 kts | 294° |
| 2026-05-07 14:34 | 34.45889 | 113.68038 | 6294 ft | 236 kts | 295° |
| 2026-05-07 14:34 | 34.46501 | 113.66204 | 6174 ft | 236 kts | 296° |
| 2026-05-07 14:34 | 34.47118 | 113.64372 | 6033 ft | 236 kts | 296° |
| 2026-05-07 14:35 | 34.47734 | 113.62540 | 5900 ft | 236 kts | 296° |
| 2026-05-07 14:35 | 34.48355 | 113.60702 | 5760 ft | 237 kts | 296° |
| 2026-05-07 14:35 | 34.48982 | 113.58867 | 5614 ft | 237 kts | 296° |
| 2026-05-07 14:35 | 34.49616 | 113.57011 | 5466 ft | 237 kts | 296° |
| 2026-05-07 14:36 | 34.50244 | 113.55167 | 5324 ft | 238 kts | 296° |
| 2026-05-07 14:36 | 34.50868 | 113.53317 | 5177 ft | 238 kts | 296° |
| 2026-05-07 14:36 | 34.51493 | 113.51461 | 5028 ft | 238 kts | 296° |
| 2026-05-07 14:36 | 34.52118 | 113.49606 | 4885 ft | 239 kts | 296° |
| 2026-05-07 14:37 | 34.52960 | 113.47916 | 4721 ft | 234 kts | 319° |
| 2026-05-07 14:37 | 34.55889 | 113.47005 | 4409 ft | 222 kts | 14° |
| 2026-05-07 14:37 | 34.57367 | 113.47536 | 4309 ft | 221 kts | 21° |
| 2026-05-07 14:38 | 34.58795 | 113.48204 | 4208 ft | 216 kts | 24° |
| 2026-05-07 14:38 | 34.60138 | 113.48864 | 4103 ft | 201 kts | 24° |
| 2026-05-07 14:38 | 34.61377 | 113.49540 | 3999 ft | 191 kts | 36° |
| 2026-05-07 14:38 | 34.62233 | 113.50712 | 3877 ft | 187 kts | 64° |
| 2026-05-07 14:39 | 34.62476 | 113.52243 | 3788 ft | 189 kts | 92° |
| 2026-05-07 14:39 | 34.62221 | 113.53818 | 3714 ft | 191 kts | 103° |
| 2026-05-07 14:39 | 34.61785 | 113.55334 | 3641 ft | 191 kts | 107° |
| 2026-05-07 14:39 | 34.61287 | 113.56822 | 3571 ft | 191 kts | 109° |
| 2026-05-07 14:40 | 34.60773 | 113.58286 | 3490 ft | 183 kts | 109° |
| 2026-05-07 14:40 | 34.60289 | 113.59659 | 3412 ft | 173 kts | 109° |
| 2026-05-07 14:40 | 34.59833 | 113.60985 | 3339 ft | 169 kts | 108° |
| 2026-05-07 14:40 | 34.59388 | 113.62291 | 3263 ft | 169 kts | 108° |
| 2026-05-07 14:41 | 34.58940 | 113.63610 | 3189 ft | 168 kts | 108° |
| 2026-05-07 14:41 | 34.58498 | 113.64910 | 3124 ft | 168 kts | 108° |
| 2026-05-07 14:41 | 34.58056 | 113.66210 | 3051 ft | 167 kts | 108° |
| 2026-05-07 14:41 | 34.57615 | 113.67503 | 3043 ft | 167 kts | 108° |
| 2026-05-07 14:42 | 34.57169 | 113.68815 | 2869 ft | 167 kts | 109° |
| 2026-05-07 14:42 | 34.56731 | 113.70095 | 2648 ft | 161 kts | 109° |
| 2026-05-07 14:42 | 34.56316 | 113.71308 | 2455 ft | 152 kts | 108° |
| 2026-05-07 14:42 | 34.55916 | 113.72482 | 2267 ft | 150 kts | 109° |
| 2026-05-07 14:43 | 34.55520 | 113.73643 | 2072 ft | 149 kts | 109° |
| 2026-05-07 14:43 | 34.55127 | 113.74791 | 1877 ft | 147 kts | 109° |
| 2026-05-07 14:43 | 34.54739 | 113.75931 | 1694 ft | 147 kts | 110° |
| 2026-05-07 14:43 | 34.54349 | 113.77072 | 1493 ft | 148 kts | 109° |
| 2026-05-07 14:44 | 34.53955 | 113.78226 | 1293 ft | 150 kts | 110° |
| 2026-05-07 14:44 | 34.53556 | 113.79396 | 1090 ft | 151 kts | 110° |
| 2026-05-07 14:44 | 34.53161 | 113.80582 | 870 ft | 153 kts | 110° |
| 2026-05-07 14:44 | 34.52744 | 113.81766 | 657 ft | 154 kts | 112° |
| 2026-05-07 14:45 | 34.52334 | 113.82940 | 537 ft | 145 kts | 111° |
| 2026-05-07 14:45 | 34.52002 | 113.83918 | 535 ft | 107 kts | 112° |
| 2026-05-07 14:45 | 34.51799 | 113.84526 | 535 ft | 47 kts | 108° |
| 2026-05-07 14:45 | 34.51784 | 113.84798 | 535 ft | 24 kts | 83° |
| 2026-05-07 14:46 | 34.51840 | 113.84934 | 535 ft | 18 kts | 20° |
| 2026-05-07 14:46 | 34.51948 | 113.84985 | 535 ft | 16 kts | 22° |
| 2026-05-07 14:46 | 34.52156 | 113.83468 | 536 ft | 126 kts | 112° |
| 2026-05-07 14:46 | 34.53186 | 113.80510 | 884 ft | 152 kts | 110° |
| 2026-05-07 14:47 | 34.52770 | 113.81694 | 668 ft | 154 kts | 112° |
| 2026-05-07 14:47 | 34.52359 | 113.82871 | 537 ft | 147 kts | 111° |
| 2026-05-07 14:47 | 34.52020 | 113.83866 | 536 ft | 110 kts | 112° |
| 2026-05-07 14:47 | 34.51806 | 113.84502 | 535 ft | 50 kts | 110° |
| 2026-05-07 14:48 | 34.51783 | 113.84787 | 535 ft | 24 kts | 83° |
| 2026-05-07 14:48 | 34.52028 | 113.85025 | 535 ft | 15 kts | 21° |
| 2026-05-07 14:48 | 34.52122 | 113.85070 | 535 ft | 14 kts | 22° |
| 2026-05-07 14:48 | 34.52206 | 113.85112 | 535 ft | 12 kts | 22° |
| 2026-05-07 14:49 | 34.52282 | 113.85151 | 535 ft | 11 kts | 23° |
| 2026-05-07 14:49 | 34.52352 | 113.85186 | 535 ft | 10 kts | 22° |
| 2026-05-07 14:49 | 34.52417 | 113.85218 | 535 ft | 10 kts | 22° |
| 2026-05-07 14:49 | 34.52476 | 113.85244 | 535 ft | 8 kts | 6° |
| 2026-05-07 14:50 | 34.52519 | 113.85217 | 535 ft | 7 kts | 300° |
| 2026-05-07 14:50 | 34.52537 | 113.85164 | 535 ft | 7 kts | 292° |
| 2026-05-07 14:50 | 34.52554 | 113.85116 | 535 ft | 4 kts | 292° |
| 2026-05-07 14:50 | 34.52563 | 113.85089 | 535 ft | 2 kts | 292° |